Time;durP1;ratioP1;P1;durP2;ratioP2;P2;SDS_P1;SDS_P2;PMS_P1;PMS_P2;Temp;Humidity;BMP_temperature;BMP_pressure;BME280_temperature;BME280_humidity;BME280_pressure;Samples;Min_cycle;Max_cycle;Signal;HPM_P1;HPM_P2
2021/12/20 05:00:43;;;;;;;3.03;2.65;;;1.20;99.90;;;;;;5832270;23;20238;-70
2021/12/20 05:03:10;;;;;;;6.00;2.78;;;1.20;99.90;;;;;;4990994;28;20212;-70
2021/12/20 05:05:37;;;;;;;2.47;2.28;;;1.20;99.90;;;;;;4991060;28;20571;-70
2021/12/20 05:08:05;;;;;;;2.42;2.22;;;1.20;99.90;;;;;;4984133;28;20204;-70
2021/12/20 05:10:34;;;;;;;3.25;2.90;;;1.20;99.90;;;;;;4971413;28;20232;-70
2021/12/20 05:13:03;;;;;;;5.15;2.58;;;1.20;99.90;;;;;;4971626;28;20271;-70
2021/12/20 05:15:30;;;;;;;3.92;1.95;;;1.20;99.90;;;;;;4971402;28;20220;-70
2021/12/20 05:17:59;;;;;;;7.88;2.20;;;1.10;99.90;;;;;;4971498;28;20204;-70
2021/12/20 05:20:27;;;;;;;7.10;2.45;;;1.10;99.90;;;;;;4971085;28;20211;-72
2021/12/20 05:22:55;;;;;;;2.03;1.92;;;1.10;99.90;;;;;;4972478;28;20310;-71
2021/12/20 05:25:22;;;;;;;3.60;2.13;;;1.10;99.90;;;;;;4971306;28;20232;-71
2021/12/20 05:27:49;;;;;;;6.95;2.58;;;1.10;99.90;;;;;;4971624;28;20220;-71
2021/12/20 05:30:16;;;;;;;1.80;1.80;;;1.10;99.90;;;;;;4970866;28;20564;-71
2021/12/20 05:32:43;;;;;;;8.32;2.80;;;1.10;99.90;;;;;;4972096;28;20312;-71
2021/12/20 05:35:13;;;;;;;5.28;3.28;;;1.10;99.90;;;;;;4972051;28;20259;-71
2021/12/20 05:37:40;;;;;;;7.82;2.40;;;1.00;99.90;;;;;;4971675;28;20208;-72
2021/12/20 05:40:10;;;;;;;2.13;1.92;;;1.00;99.90;;;;;;4971462;28;20205;-71
2021/12/20 05:42:37;;;;;;;3.50;3.20;;;1.00;99.90;;;;;;4973982;28;20217;-71
2021/12/20 05:45:05;;;;;;;4.60;2.83;;;1.00;99.90;;;;;;4974499;28;20212;-71
2021/12/20 05:47:31;;;;;;;2.47;2.35;;;1.00;99.90;;;;;;4975673;28;20216;-71
2021/12/20 05:49:58;;;;;;;6.35;2.83;;;1.00;99.90;;;;;;4975054;28;20729;-71
2021/12/20 05:52:26;;;;;;;4.22;2.60;;;1.00;99.90;;;;;;4975214;28;20283;-71
2021/12/20 05:54:53;;;;;;;2.85;2.53;;;1.00;99.90;;;;;;4976079;28;20478;-72
2021/12/20 05:57:19;;;;;;;4.63;3.38;;;1.00;99.90;;;;;;4991555;28;20624;-71
2021/12/20 05:59:46;;;;;;;6.03;2.85;;;1.00;99.90;;;;;;4974770;28;20208;-71
2021/12/20 06:02:13;;;;;;;12.13;2.72;;;1.00;99.90;;;;;;4975004;28;20236;-71
2021/12/20 06:04:40;;;;;;;5.40;3.00;;;1.00;99.90;;;;;;4974746;28;20251;-70
2021/12/20 06:07:08;;;;;;;2.22;2.13;;;1.00;99.90;;;;;;4974769;28;20225;-71
2021/12/20 06:09:36;;;;;;;2.95;2.25;;;0.90;99.90;;;;;;4974608;28;20575;-71
2021/12/20 06:12:03;;;;;;;2.65;2.45;;;0.90;99.90;;;;;;4974239;28;20239;-72
2021/12/20 06:14:31;;;;;;;6.38;3.03;;;0.90;99.90;;;;;;4974606;28;20216;-70
2021/12/20 06:16:58;;;;;;;8.90;3.35;;;0.90;99.90;;;;;;4975547;28;20208;-69
2021/12/20 06:19:26;;;;;;;3.70;3.45;;;0.90;99.90;;;;;;4974957;28;20230;-71
2021/12/20 06:21:52;;;;;;;4.78;3.33;;;0.90;99.90;;;;;;4974735;28;20232;-70
2021/12/20 06:24:19;;;;;;;5.35;2.85;;;0.90;99.90;;;;;;4974630;28;20337;-72
2021/12/20 06:26:47;;;;;;;5.00;2.55;;;0.90;99.90;;;;;;4974410;28;20232;-71
2021/12/20 06:29:14;;;;;;;4.55;1.98;;;0.80;99.90;;;;;;4974404;28;20213;-70
2021/12/20 06:31:41;;;;;;;3.15;2.00;;;0.80;99.90;;;;;;4974610;28;20228;-70
2021/12/20 06:34:07;;;;;;;2.35;1.63;;;0.90;99.90;;;;;;4974759;28;20262;-71
2021/12/20 06:36:34;;;;;;;2.33;2.22;;;0.90;99.90;;;;;;4975253;28;20300;-71
2021/12/20 06:39:01;;;;;;;4.18;2.67;;;0.90;99.90;;;;;;4974822;28;20216;-71
2021/12/20 06:41:28;;;;;;;2.10;2.00;;;0.90;99.90;;;;;;4973948;28;20237;-71
2021/12/20 06:43:57;;;;;;;4.80;2.33;;;0.90;99.90;;;;;;4974622;28;20641;-71
2021/12/20 06:46:25;;;;;;;4.05;3.28;;;0.90;99.90;;;;;;4992910;28;20335;-72
2021/12/20 06:48:52;;;;;;;2.20;2.10;;;0.90;99.90;;;;;;4995913;28;20681;-71
2021/12/20 06:51:19;;;;;;;4.38;2.10;;;0.90;99.90;;;;;;4995728;28;20239;-71
2021/12/20 06:53:45;;;;;;;3.22;1.83;;;0.90;99.90;;;;;;4993279;28;20212;-71
2021/12/20 06:56:13;;;;;;;4.38;2.50;;;0.90;99.90;;;;;;4994936;28;20230;-71
2021/12/20 06:58:39;;;;;;;3.58;2.50;;;0.90;99.90;;;;;;4995607;28;20615;-71
2021/12/20 07:01:08;;;;;;;2.00;1.90;;;0.90;99.90;;;;;;4993346;28;20750;-70
2021/12/20 07:03:34;;;;;;;2.50;2.08;;;0.90;99.90;;;;;;4993282;28;20207;-71
2021/12/20 07:06:01;;;;;;;4.78;2.00;;;0.90;99.90;;;;;;4993442;28;20274;-71
2021/12/20 07:08:27;;;;;;;4.82;2.92;;;0.90;99.90;;;;;;4993418;28;20274;-70
2021/12/20 07:10:54;;;;;;;1.92;1.67;;;0.90;99.90;;;;;;4993186;28;20228;-72
2021/12/20 07:13:22;;;;;;;3.33;1.58;;;0.90;99.90;;;;;;4992449;28;20212;-71
2021/12/20 07:15:49;;;;;;;1.50;1.50;;;0.90;99.90;;;;;;4993754;28;20228;-72
2021/12/20 07:18:17;;;;;;;5.43;3.65;;;0.90;99.90;;;;;;4993761;28;20260;-70
2021/12/20 07:20:44;;;;;;;3.40;1.80;;;0.90;99.90;;;;;;4993092;28;20299;-69
2021/12/20 07:23:10;;;;;;;4.43;2.13;;;0.90;99.90;;;;;;4993233;28;20219;-71
2021/12/20 07:25:37;;;;;;;2.40;2.10;;;0.90;99.90;;;;;;4993254;28;20208;-69
2021/12/20 07:28:04;;;;;;;2.60;2.40;;;0.90;99.90;;;;;;4992934;28;20550;-69
2021/12/20 07:30:31;;;;;;;3.38;2.00;;;0.90;99.90;;;;;;4992770;28;20791;-69
2021/12/20 07:32:58;;;;;;;4.32;2.08;;;0.90;99.90;;;;;;4993679;28;20203;-69
2021/12/20 07:35:27;;;;;;;7.55;2.30;;;0.90;99.90;;;;;;4980585;28;20219;-69
2021/12/20 07:37:56;;;;;;;2.20;2.10;;;0.90;99.90;;;;;;4993912;28;20579;-70
2021/12/20 07:40:22;;;;;;;2.45;2.25;;;0.90;99.90;;;;;;4993426;28;20208;-69
2021/12/20 07:42:49;;;;;;;3.50;2.42;;;0.90;99.90;;;;;;4992822;28;20553;-70
2021/12/20 07:45:16;;;;;;;2.95;2.20;;;0.90;99.90;;;;;;4992416;28;20216;-69
2021/12/20 07:47:43;;;;;;;4.35;2.25;;;1.00;99.90;;;;;;4992572;28;20278;-70
2021/12/20 07:50:10;;;;;;;4.32;2.00;;;1.00;99.90;;;;;;4992422;28;20207;-70
2021/12/20 07:52:39;;;;;;;2.40;2.20;;;1.00;99.90;;;;;;4992317;28;20207;-70
2021/12/20 07:55:06;;;;;;;5.95;2.08;;;1.00;99.90;;;;;;4992535;28;20261;-70
2021/12/20 07:57:33;;;;;;;5.65;1.70;;;1.00;99.90;;;;;;4991828;28;20208;-70
2021/12/20 08:00:00;;;;;;;2.85;2.65;;;1.00;99.90;;;;;;4991931;28;20220;-70
2021/12/20 08:02:26;;;;;;;2.92;1.75;;;1.10;99.90;;;;;;4992152;28;20724;-70
2021/12/20 08:04:53;;;;;;;2.33;2.17;;;1.10;99.90;;;;;;4992303;28;20322;-69
2021/12/20 08:07:22;;;;;;;1.98;1.60;;;1.20;99.90;;;;;;4991531;28;20319;-70
2021/12/20 08:09:51;;;;;;;4.38;2.13;;;1.20;99.90;;;;;;4991926;28;20278;-70
2021/12/20 08:12:18;;;;;;;4.25;1.77;;;1.20;99.90;;;;;;4991911;28;20705;-68
2021/12/20 08:14:45;;;;;;;4.30;2.78;;;1.20;99.90;;;;;;4991627;28;20216;-69
2021/12/20 08:17:12;;;;;;;1.80;1.80;;;1.20;99.90;;;;;;4992046;28;20212;-70
2021/12/20 08:19:39;;;;;;;3.78;1.90;;;1.20;99.90;;;;;;4991541;28;20277;-69
2021/12/20 08:22:06;;;;;;;3.75;2.08;;;1.30;99.90;;;;;;4991779;28;20716;-69
2021/12/20 08:24:33;;;;;;;1.40;1.40;;;1.30;99.90;;;;;;4991978;28;20208;-68
2021/12/20 08:27:01;;;;;;;3.90;1.83;;;1.30;99.90;;;;;;4991683;28;20224;-70
2021/12/20 08:29:29;;;;;;;2.50;1.73;;;1.30;99.90;;;;;;4991155;28;20208;-70
2021/12/20 08:32:01;;;;;;;2.65;2.00;;;1.30;99.90;;;;;;4991859;28;20231;-70
2021/12/20 08:34:28;;;;;;;4.13;2.72;;;1.40;99.90;;;;;;4992091;28;20212;-70
2021/12/20 08:36:56;;;;;;;3.78;2.20;;;1.40;99.90;;;;;;4991825;28;20203;-69
2021/12/20 08:39:23;;;;;;;4.30;1.80;;;1.40;99.90;;;;;;4991537;28;20589;-69
2021/12/20 08:41:50;;;;;;;3.40;1.88;;;1.50;99.90;;;;;;4991069;28;20647;-70
2021/12/20 08:44:18;;;;;;;2.70;1.85;;;1.50;99.90;;;;;;4991322;28;20211;-70
2021/12/20 08:46:45;;;;;;;2.65;2.00;;;1.50;99.90;;;;;;4991722;28;20231;-70
2021/12/20 08:49:11;;;;;;;4.00;1.90;;;1.60;99.90;;;;;;4991602;28;20638;-69
2021/12/20 08:51:39;;;;;;;1.52;1.42;;;1.60;99.90;;;;;;4991368;28;20234;-70
2021/12/20 08:54:06;;;;;;;2.40;2.30;;;1.60;99.90;;;;;;4991689;28;20204;-70
2021/12/20 08:56:33;;;;;;;4.43;2.25;;;1.60;99.90;;;;;;4973676;28;20724;-70
2021/12/20 08:59:00;;;;;;;2.88;2.40;;;1.60;99.90;;;;;;4986221;28;20266;-69
2021/12/20 09:01:28;;;;;;;4.05;2.20;;;1.70;99.90;;;;;;4991317;28;20656;-71
2021/12/20 09:03:57;;;;;;;5.60;2.50;;;1.70;99.90;;;;;;4991425;28;20204;-71
2021/12/20 09:06:24;;;;;;;2.10;2.00;;;1.70;99.90;;;;;;4991425;28;20238;-70
2021/12/20 09:08:53;;;;;;;2.47;2.28;;;1.70;99.90;;;;;;4991264;28;20239;-71
2021/12/20 09:11:20;;;;;;;2.10;2.00;;;1.80;99.90;;;;;;4990964;28;20223;-69
2021/12/20 09:13:47;;;;;;;3.05;2.40;;;1.80;99.90;;;;;;4991353;28;20239;-68
2021/12/20 09:16:14;;;;;;;6.40;2.30;;;1.80;99.90;;;;;;4992109;28;20215;-71
2021/12/20 09:18:43;;;;;;;7.35;2.78;;;1.90;99.90;;;;;;4995913;28;20212;-70
2021/12/20 09:21:10;;;;;;;7.57;2.10;;;1.90;99.90;;;;;;4995381;28;20331;-70
2021/12/20 09:23:37;;;;;;;4.20;2.40;;;1.90;99.90;;;;;;4995322;28;20690;-70
2021/12/20 09:26:04;;;;;;;6.55;2.95;;;1.90;99.90;;;;;;4995816;28;20250;-70
2021/12/20 09:28:31;;;;;;;4.50;3.60;;;1.90;99.90;;;;;;4994518;28;20968;-69
2021/12/20 09:30:58;;;;;;;2.92;2.75;;;2.00;99.90;;;;;;4995798;28;20281;-70
2021/12/20 09:33:25;;;;;;;3.45;2.15;;;2.00;99.90;;;;;;4995035;28;20214;-69
2021/12/20 09:35:54;;;;;;;5.30;2.97;;;2.10;99.90;;;;;;4990560;28;20262;-69
2021/12/20 09:38:21;;;;;;;2.95;2.72;;;2.10;99.90;;;;;;4994839;28;20286;-69
2021/12/20 09:41:15;;;;;;;3.28;2.47;;;2.10;99.90;;;;;;4995239;28;20276;-69
2021/12/20 09:43:45;;;;;;;4.30;2.65;;;2.20;99.90;;;;;;4995802;28;20227;-69
2021/12/20 09:46:12;;;;;;;5.82;3.08;;;2.20;99.90;;;;;;4996796;28;20619;-71
2021/12/20 09:48:39;;;;;;;3.15;2.30;;;2.20;99.90;;;;;;4994747;28;20218;-69
2021/12/20 09:51:07;;;;;;;3.33;3.03;;;2.30;99.90;;;;;;4995303;28;20227;-69
2021/12/20 09:53:35;;;;;;;3.08;2.75;;;2.30;99.90;;;;;;4994811;28;20299;-69
2021/12/20 09:56:02;;;;;;;2.90;2.42;;;2.40;99.90;;;;;;4994793;28;20223;-69
2021/12/20 09:58:34;;;;;;;8.68;3.40;;;2.40;99.90;;;;;;4994421;28;20211;-69
2021/12/20 10:01:02;;;;;;;4.53;2.63;;;2.40;99.90;;;;;;4996399;28;20236;-69
2021/12/20 10:03:30;;;;;;;3.60;2.50;;;2.50;99.90;;;;;;4994717;28;20216;-69
2021/12/20 10:05:57;;;;;;;5.05;2.80;;;2.50;99.90;;;;;;4994533;28;20231;-70
2021/12/20 10:08:32;;;;;;;4.10;3.03;;;2.50;99.90;;;;;;4994595;28;20318;-70
2021/12/20 10:11:01;;;;;;;4.82;3.13;;;2.60;99.90;;;;;;4994571;28;20223;-69
2021/12/20 10:13:29;;;;;;;3.05;2.85;;;2.60;99.90;;;;;;4993253;28;20254;-69
2021/12/20 10:15:58;;;;;;;3.38;2.95;;;2.60;99.90;;;;;;4994534;28;20587;-69
2021/12/20 10:18:26;;;;;;;2.75;2.65;;;2.70;99.90;;;;;;4994409;28;20282;-69
2021/12/20 10:20:55;;;;;;;5.35;3.22;;;2.70;99.90;;;;;;4994302;28;20236;-70
2021/12/20 10:23:23;;;;;;;6.25;3.80;;;2.70;99.90;;;;;;4994316;28;20238;-69
2021/12/20 10:25:54;;;;;;;3.13;2.83;;;2.80;99.90;;;;;;4994433;28;20251;-70
2021/12/20 10:28:23;;;;;;;3.33;3.13;;;2.80;99.90;;;;;;4991802;28;20232;-69
2021/12/20 10:30:52;;;;;;;3.45;3.10;;;2.90;99.90;;;;;;4993947;28;20779;-69
2021/12/20 10:33:21;;;;;;;3.83;3.00;;;2.90;99.90;;;;;;4994168;28;20208;-69
2021/12/20 10:35:51;;;;;;;3.53;3.13;;;2.90;99.90;;;;;;4994202;28;20223;-70
2021/12/20 10:38:26;;;;;;;6.20;2.85;;;2.90;99.90;;;;;;4994161;28;20199;-70
2021/12/20 10:40:56;;;;;;;3.38;3.08;;;3.00;99.90;;;;;;4993684;28;20278;-71
2021/12/20 10:43:26;;;;;;;5.82;3.85;;;3.00;99.90;;;;;;4992932;28;20204;-70
2021/12/20 10:45:55;;;;;;;2.95;2.70;;;3.10;99.90;;;;;;4994028;28;20226;-70
2021/12/20 10:48:22;;;;;;;3.20;2.90;;;3.10;99.90;;;;;;4993606;28;20240;-70
2021/12/20 10:50:49;;;;;;;3.17;2.85;;;3.20;99.90;;;;;;4993472;28;20224;-69
2021/12/20 10:53:19;;;;;;;10.00;3.00;;;3.20;99.90;;;;;;4993491;28;20208;-70
2021/12/20 10:55:49;;;;;;;2.90;2.70;;;3.20;99.90;;;;;;4988881;28;20209;-69
2021/12/20 10:58:28;;;;;;;5.90;3.42;;;3.30;99.90;;;;;;4981838;28;20200;-70
2021/12/20 11:01:17;;;;;;;3.38;2.97;;;3.30;99.90;;;;;;4996378;28;20728;-69
2021/12/20 11:03:45;;;;;;;2.67;2.40;;;3.40;99.90;;;;;;4996425;28;20790;-70
2021/12/20 11:06:39;;;;;;;5.65;2.65;;;3.40;99.90;;;;;;4996980;28;20218;-69
2021/12/20 11:09:18;;;;;;;3.53;2.90;;;3.50;99.90;;;;;;4993568;28;20204;-70
2021/12/20 11:11:49;;;;;;;3.53;2.38;;;3.50;99.90;;;;;;4992688;28;20310;-70
2021/12/20 11:14:18;;;;;;;2.80;2.60;;;3.50;99.90;;;;;;4992931;28;20203;-70
2021/12/20 11:16:49;;;;;;;4.20;2.72;;;3.50;99.90;;;;;;4993320;28;20623;-70
2021/12/20 11:19:24;;;;;;;7.03;2.85;;;3.60;99.90;;;;;;4993601;28;20596;-70
2021/12/20 11:21:57;;;;;;;3.00;2.72;;;3.60;99.90;;;;;;4993701;28;20235;-70
2021/12/20 11:24:30;;;;;;;2.90;2.30;;;3.70;99.90;;;;;;4993006;28;20218;-70
2021/12/20 11:26:58;;;;;;;3.15;2.85;;;3.70;99.90;;;;;;4992791;28;20232;-70
2021/12/20 11:29:26;;;;;;;2.60;2.40;;;3.70;99.90;;;;;;4992781;28;20220;-70
2021/12/20 11:31:55;;;;;;;5.20;2.88;;;3.70;99.90;;;;;;4992583;28;20236;-70
2021/12/20 11:34:22;;;;;;;4.00;2.90;;;3.70;99.90;;;;;;4986755;28;20662;-72
2021/12/20 11:36:49;;;;;;;3.55;3.10;;;3.70;99.90;;;;;;4978134;28;20211;-71
2021/12/20 11:39:17;;;;;;;2.20;2.10;;;3.80;99.90;;;;;;4992475;28;20214;-71
2021/12/20 11:41:44;;;;;;;3.22;2.75;;;3.80;99.90;;;;;;4991935;28;20260;-70
2021/12/20 11:44:18;;;;;;;3.80;2.47;;;3.90;99.90;;;;;;4992371;28;20211;-71
2021/12/20 11:46:56;;;;;;;3.78;2.80;;;3.90;99.90;;;;;;4992325;28;20692;-71
2021/12/20 11:49:26;;;;;;;5.22;3.08;;;3.90;99.90;;;;;;4992445;28;20271;-72
2021/12/20 11:52:02;;;;;;;4.80;3.22;;;3.90;99.90;;;;;;4992302;28;20239;-69
2021/12/20 11:54:34;;;;;;;5.80;3.10;;;3.90;99.90;;;;;;4992365;28;20620;-69
2021/12/20 11:57:01;;;;;;;2.88;2.58;;;4.00;99.90;;;;;;4992268;28;20212;-71
2021/12/20 11:59:49;;;;;;;9.57;3.55;;;4.00;99.90;;;;;;4991971;28;20211;-72
2021/12/20 12:02:22;;;;;;;4.47;2.95;;;4.00;99.90;;;;;;4993384;28;20282;-70
2021/12/20 12:04:58;;;;;;;3.60;2.72;;;4.00;99.90;;;;;;4994442;28;20212;-70
2021/12/20 12:07:26;;;;;;;2.60;2.50;;;4.00;99.90;;;;;;4994357;28;20341;-71
2021/12/20 12:10:01;;;;;;;4.47;4.18;;;4.10;99.90;;;;;;4993228;28;20270;-70
2021/12/20 12:12:29;;;;;;;2.60;2.50;;;4.10;99.90;;;;;;4991474;28;20240;-70
2021/12/20 12:15:05;;;;;;;6.03;4.72;;;4.10;99.90;;;;;;4991675;28;20303;-70
2021/12/20 12:17:57;;;;;;;3.05;2.85;;;4.10;99.90;;;;;;4991902;28;20363;-70
2021/12/20 12:20:42;;;;;;;3.33;3.08;;;4.10;99.90;;;;;;4991845;28;20529;-71
2021/12/20 12:23:11;;;;;;;4.97;3.15;;;4.10;99.90;;;;;;4992452;28;20291;-69
2021/12/20 12:25:40;;;;;;;3.17;2.60;;;4.10;99.90;;;;;;4991748;28;20204;-69
2021/12/20 12:28:08;;;;;;;3.30;3.10;;;4.10;99.90;;;;;;4991364;28;20238;-70
2021/12/20 12:30:36;;;;;;;5.95;3.10;;;4.20;99.90;;;;;;4991301;28;20231;-70
2021/12/20 12:33:27;;;;;;;5.07;3.53;;;4.20;99.90;;;;;;4991597;28;20208;-70
2021/12/20 12:36:00;;;;;;;3.45;3.17;;;4.20;99.90;;;;;;4983766;28;20204;-70
2021/12/20 12:38:31;;;;;;;3.72;2.25;;;4.20;99.90;;;;;;4991466;28;20652;-70
2021/12/20 12:41:15;;;;;;;4.63;2.25;;;4.30;99.90;;;;;;4991485;28;20827;-70
2021/12/20 12:43:55;;;;;;;9.88;3.47;;;4.20;99.90;;;;;;4991185;28;20208;-70
2021/12/20 12:47:00;;;;;;;3.25;3.05;;;4.30;99.90;;;;;;4991179;28;20218;-70
2021/12/20 12:49:44;;;;;;;4.72;2.65;;;4.30;99.90;;;;;;4991908;28;20203;-70
2021/12/20 12:52:31;;;;;;;2.58;2.38;;;4.30;99.90;;;;;;4990801;28;20731;-70
2021/12/20 12:55:04;;;;;;;6.15;3.75;;;4.30;99.90;;;;;;4990303;28;20668;-70
2021/12/20 12:57:35;;;;;;;2.97;2.35;;;4.30;99.90;;;;;;4990247;28;20698;-70
2021/12/20 13:00:20;;;;;;;3.47;3.00;;;4.30;99.90;;;;;;4990814;28;20292;-71
2021/12/20 13:02:50;;;;;;;6.95;2.55;;;4.30;99.90;;;;;;4992133;28;20236;-68
2021/12/20 13:05:21;;;;;;;2.88;2.53;;;4.30;99.90;;;;;;4991641;28;20270;-70
2021/12/20 13:07:50;;;;;;;4.20;1.75;;;4.30;99.90;;;;;;4991735;28;20211;-70
2021/12/20 13:10:19;;;;;;;4.38;2.10;;;4.30;99.90;;;;;;4990796;28;20212;-70
2021/12/20 13:12:52;;;;;;;4.43;3.40;;;4.30;99.90;;;;;;4990469;28;20215;-71
2021/12/20 13:15:25;;;;;;;2.80;2.40;;;4.30;99.90;;;;;;4991124;28;20216;-70
2021/12/20 13:17:55;;;;;;;2.47;2.38;;;4.30;99.90;;;;;;4991306;28;20545;-70
2021/12/20 13:20:32;;;;;;;10.00;3.60;;;4.30;99.90;;;;;;4990673;28;20646;-70
2021/12/20 13:23:02;;;;;;;6.70;3.65;;;4.30;99.90;;;;;;4991333;28;20235;-70
2021/12/20 13:25:41;;;;;;;4.90;2.50;;;4.30;99.90;;;;;;4990784;28;20212;-69
2021/12/20 13:28:12;;;;;;;3.58;2.40;;;4.20;99.90;;;;;;4990637;28;20235;-70
2021/12/20 13:30:44;;;;;;;3.47;2.30;;;4.30;99.90;;;;;;4990957;28;20232;-70
2021/12/20 13:33:11;;;;;;;5.72;3.42;;;4.20;99.90;;;;;;4991105;28;20208;-70
2021/12/20 13:35:41;;;;;;;4.30;3.92;;;4.20;99.90;;;;;;4982905;28;20619;-69
2021/12/20 13:38:24;;;;;;;3.33;3.13;;;4.10;99.90;;;;;;4971949;28;20554;-69
2021/12/20 13:40:54;;;;;;;3.42;3.13;;;4.10;99.90;;;;;;4971963;28;20229;-70
2021/12/20 13:43:30;;;;;;;7.85;3.90;;;4.10;99.90;;;;;;4971212;28;20215;-70
2021/12/20 13:46:28;;;;;;;4.18;3.65;;;4.10;99.90;;;;;;4971682;28;20227;-70
2021/12/20 13:48:57;;;;;;;4.82;3.00;;;4.10;99.90;;;;;;4971792;28;20348;-70
2021/12/20 13:51:34;;;;;;;8.43;2.88;;;4.10;99.90;;;;;;4971536;28;20229;-69
2021/12/20 13:54:15;;;;;;;6.80;3.75;;;4.00;99.90;;;;;;4971766;28;20208;-70
2021/12/20 13:56:43;;;;;;;3.38;2.20;;;4.00;99.90;;;;;;4971296;28;20251;-70
2021/12/20 13:59:10;;;;;;;7.05;2.55;;;4.00;99.90;;;;;;4971499;28;20321;-70
2021/12/20 14:01:37;;;;;;;3.45;3.20;;;4.00;99.90;;;;;;4971791;28;20244;-70
2021/12/20 14:04:05;;;;;;;4.60;3.05;;;3.90;99.90;;;;;;4974948;28;20583;-70
2021/12/20 14:06:41;;;;;;;4.65;3.28;;;3.90;99.90;;;;;;4975019;28;20212;-71
2021/12/20 14:09:22;;;;;;;5.30;4.68;;;3.90;99.90;;;;;;4974965;28;20242;-69
2021/12/20 14:11:49;;;;;;;4.72;3.60;;;3.90;99.90;;;;;;4975639;28;20260;-69
2021/12/20 14:14:15;;;;;;;2.40;2.30;;;3.80;99.90;;;;;;4976118;28;20265;-70
2021/12/20 14:16:59;;;;;;;7.53;2.72;;;3.80;99.90;;;;;;4975292;28;20305;-70
2021/12/20 14:20:00;;;;;;;4.40;3.28;;;3.80;99.90;;;;;;4974820;28;20204;-70
2021/12/20 14:22:29;;;;;;;4.07;3.42;;;3.80;99.90;;;;;;4974965;28;20236;-70
2021/12/20 14:25:04;;;;;;;4.20;2.45;;;3.70;99.90;;;;;;4974606;28;20204;-70
2021/12/20 14:27:30;;;;;;;4.70;2.63;;;3.70;99.90;;;;;;4974233;28;20577;-69
2021/12/20 14:29:57;;;;;;;5.57;2.75;;;3.70;99.90;;;;;;4973795;28;20236;-70
2021/12/20 14:32:38;;;;;;;9.40;2.95;;;3.60;99.90;;;;;;4975057;28;20224;-70
2021/12/20 14:35:34;;;;;;;3.80;2.40;;;3.60;99.90;;;;;;4974773;28;20624;-70
2021/12/20 14:38:23;;;;;;;2.15;2.05;;;3.60;99.90;;;;;;4974771;28;20207;-70
2021/12/20 14:40:51;;;;;;;4.07;3.13;;;3.60;99.90;;;;;;4974877;28;20632;-70
2021/12/20 14:43:19;;;;;;;3.08;2.92;;;3.50;99.90;;;;;;4973650;28;20215;-70
2021/12/20 14:45:52;;;;;;;4.57;3.85;;;3.40;99.90;;;;;;4974521;28;20213;-70
2021/12/20 14:48:24;;;;;;;3.97;2.60;;;3.40;99.90;;;;;;4973943;28;20229;-71
2021/12/20 14:50:52;;;;;;;3.55;2.30;;;3.40;99.90;;;;;;4973943;28;20728;-71
2021/12/20 14:53:24;;;;;;;3.20;3.00;;;3.30;99.90;;;;;;4974725;28;20219;-71
2021/12/20 14:55:51;;;;;;;5.30;2.80;;;3.30;99.90;;;;;;4979234;28;20694;-72
2021/12/20 14:58:20;;;;;;;3.65;3.25;;;3.20;99.90;;;;;;4992536;28;20543;-71
2021/12/20 15:00:47;;;;;;;4.20;3.03;;;3.20;99.90;;;;;;4993135;28;20704;-71
2021/12/20 15:03:16;;;;;;;3.92;3.58;;;3.20;99.90;;;;;;4993039;28;20212;-71
2021/12/20 15:05:45;;;;;;;6.80;4.20;;;3.10;99.90;;;;;;4993610;28;20208;-70
2021/12/20 15:08:13;;;;;;;4.90;3.60;;;3.00;99.90;;;;;;4993006;28;20700;-70
2021/12/20 15:10:41;;;;;;;5.53;4.93;;;3.00;99.90;;;;;;4993129;28;20359;-70
2021/12/20 15:13:08;;;;;;;6.68;4.53;;;2.90;99.90;;;;;;4992845;28;20212;-70
2021/12/20 15:15:34;;;;;;;7.50;4.07;;;2.90;99.90;;;;;;4992122;28;20700;-70
2021/12/20 15:18:01;;;;;;;4.22;2.80;;;2.90;99.90;;;;;;4993346;28;20311;-70
2021/12/20 15:20:28;;;;;;;4.95;4.47;;;2.80;99.90;;;;;;4992680;28;20208;-70
2021/12/20 15:22:55;;;;;;;7.32;4.97;;;2.80;99.90;;;;;;4993440;28;20216;-71
2021/12/20 15:25:23;;;;;;;4.85;3.85;;;2.70;99.90;;;;;;4993187;28;20214;-68
2021/12/20 15:27:51;;;;;;;6.82;4.30;;;2.70;99.90;;;;;;4992407;28;20231;-69
2021/12/20 15:30:20;;;;;;;4.32;2.75;;;2.60;99.90;;;;;;4991239;28;20208;-70
2021/12/20 15:32:47;;;;;;;3.67;3.42;;;2.70;99.90;;;;;;4991613;28;20208;-69
2021/12/20 15:35:14;;;;;;;5.53;3.33;;;2.70;99.90;;;;;;4986847;28;20678;-70
2021/12/20 15:37:40;;;;;;;4.40;2.80;;;2.70;99.90;;;;;;4985411;28;20204;-70
2021/12/20 15:40:08;;;;;;;4.25;3.05;;;2.70;99.90;;;;;;4990830;28;20251;-69
2021/12/20 15:42:35;;;;;;;4.43;3.20;;;2.60;99.90;;;;;;4992230;28;20235;-69
2021/12/20 15:45:03;;;;;;;11.73;4.30;;;2.60;99.90;;;;;;4989249;28;20212;-70
2021/12/20 15:47:30;;;;;;;6.68;6.07;;;2.60;99.90;;;;;;4992091;28;20208;-70
2021/12/20 15:49:57;;;;;;;5.72;4.55;;;2.60;99.90;;;;;;4991597;28;20220;-70
2021/12/20 15:52:24;;;;;;;4.90;4.50;;;2.60;99.90;;;;;;4992355;28;20236;-71
2021/12/20 15:54:50;;;;;;;13.02;7.00;;;2.60;99.90;;;;;;4990587;28;20200;-71
2021/12/20 15:57:17;;;;;;;7.60;6.72;;;2.50;99.90;;;;;;4976454;28;20204;-69
2021/12/20 15:59:44;;;;;;;11.38;6.85;;;2.50;99.90;;;;;;4991433;28;20200;-65
2021/12/20 16:02:12;;;;;;;6.78;5.63;;;2.40;99.90;;;;;;4991534;28;20258;-71
2021/12/20 16:04:40;;;;;;;7.50;6.47;;;2.40;99.90;;;;;;4987390;28;20207;-70
2021/12/20 16:07:07;;;;;;;6.90;5.90;;;2.30;99.90;;;;;;4982519;28;20201;-70
2021/12/20 16:09:34;;;;;;;11.02;6.50;;;2.30;99.90;;;;;;4972151;28;20287;-71
2021/12/20 16:12:00;;;;;;;6.13;5.65;;;2.30;99.90;;;;;;4990394;28;20216;-72
2021/12/20 16:14:27;;;;;;;9.32;6.72;;;2.20;99.90;;;;;;4991754;28;20203;-71
2021/12/20 16:16:54;;;;;;;9.88;6.00;;;2.10;99.90;;;;;;4985406;28;20200;-71
2021/12/20 16:19:22;;;;;;;9.95;6.90;;;2.10;99.90;;;;;;4973923;28;20296;-71
2021/12/20 16:21:49;;;;;;;7.85;6.47;;;2.00;99.90;;;;;;4991028;28;20571;-72
2021/12/20 16:24:17;;;;;;;11.98;8.18;;;2.00;99.90;;;;;;4983413;28;20271;-71
2021/12/20 16:26:44;;;;;;;11.98;7.97;;;2.00;99.90;;;;;;4989428;28;20204;-71
2021/12/20 16:29:11;;;;;;;9.10;7.60;;;2.00;99.90;;;;;;4991095;28;20223;-71
2021/12/20 16:31:38;;;;;;;9.50;8.63;;;1.90;99.90;;;;;;4972307;28;20228;-71
2021/12/20 16:34:05;;;;;;;11.18;7.10;;;1.90;99.90;;;;;;4985465;28;20204;-71
2021/12/20 16:36:33;;;;;;;9.48;6.60;;;1.90;99.90;;;;;;4990791;28;20546;-70
2021/12/20 16:39:00;;;;;;;7.30;5.60;;;1.90;99.90;;;;;;4991610;28;20204;-72
2021/12/20 16:41:26;;;;;;;6.28;5.65;;;1.90;99.90;;;;;;4992255;28;20621;-72
2021/12/20 16:43:53;;;;;;;6.93;5.90;;;1.90;99.90;;;;;;4981458;28;20215;-72
2021/12/20 16:46:20;;;;;;;7.10;5.38;;;1.90;99.90;;;;;;4992580;28;20204;-71
2021/12/20 16:48:50;;;;;;;12.10;8.68;;;1.80;99.90;;;;;;4991421;28;20589;-71
2021/12/20 16:51:18;;;;;;;14.25;10.88;;;1.80;99.90;;;;;;4992226;28;20314;-72
2021/12/20 16:53:46;;;;;;;10.15;7.57;;;1.80;99.90;;;;;;4981838;28;20208;-70
2021/12/20 16:56:13;;;;;;;10.02;7.60;;;1.80;99.90;;;;;;4980344;28;20286;-72
2021/12/20 16:58:39;;;;;;;9.77;7.55;;;1.80;99.90;;;;;;4983738;28;20204;-72
2021/12/20 17:01:06;;;;;;;6.82;5.88;;;1.80;99.90;;;;;;4979600;28;20228;-71
2021/12/20 17:03:48;;;;;;;8.38;6.88;;;1.80;99.90;;;;;;4999986;28;20207;-71
2021/12/20 17:06:15;;;;;;;8.88;6.68;;;1.70;99.90;;;;;;5001992;28;20648;-72
2021/12/20 17:08:45;;;;;;;11.77;7.80;;;1.70;99.90;;;;;;4995281;28;20215;-72
2021/12/20 17:11:13;;;;;;;11.65;7.50;;;1.70;99.90;;;;;;4993490;28;20228;-71
2021/12/20 17:13:41;;;;;;;7.85;6.72;;;1.60;99.90;;;;;;4983473;28;20279;-72
2021/12/20 17:16:10;;;;;;;7.93;6.90;;;1.60;99.90;;;;;;4979331;28;20631;-71
2021/12/20 17:18:37;;;;;;;11.00;8.55;;;1.60;99.90;;;;;;4987558;28;20250;-71
2021/12/20 17:21:04;;;;;;;12.77;8.75;;;1.60;99.90;;;;;;4979621;28;20227;-71
2021/12/20 17:23:31;;;;;;;11.82;9.50;;;1.50;99.90;;;;;;4979068;28;20660;-70
2021/12/20 17:25:58;;;;;;;17.80;11.02;;;1.50;99.90;;;;;;4991732;28;20543;-71
2021/12/20 17:28:26;;;;;;;14.60;10.27;;;1.50;99.90;;;;;;4986935;28;20588;-71
2021/12/20 17:30:53;;;;;;;14.93;9.23;;;1.50;99.90;;;;;;4971672;28;20236;-70
2021/12/20 17:33:20;;;;;;;16.63;11.60;;;1.40;99.90;;;;;;4973737;28;20216;-72
2021/12/20 17:35:47;;;;;;;13.13;10.15;;;1.40;99.90;;;;;;4991095;28;20208;-71
2021/12/20 17:38:14;;;;;;;13.20;9.98;;;1.40;99.90;;;;;;5006434;23;20586;-67
2021/12/20 17:40:40;;;;;;;8.82;8.02;;;1.30;99.90;;;;;;4994454;28;20204;-68
2021/12/20 17:43:08;;;;;;;11.73;7.22;;;1.30;99.90;;;;;;4991327;28;20220;-68
2021/12/20 17:45:36;;;;;;;9.82;8.48;;;1.30;99.90;;;;;;4982186;28;20579;-68
2021/12/20 17:48:03;;;;;;;14.88;10.05;;;1.30;99.90;;;;;;4983337;28;20669;-67
2021/12/20 17:50:30;;;;;;;19.95;11.15;;;1.30;99.90;;;;;;4972605;28;20287;-68
2021/12/20 17:52:57;;;;;;;18.13;11.05;;;1.20;99.90;;;;;;4969349;28;20215;-68
2021/12/20 17:55:24;;;;;;;14.98;9.85;;;1.20;99.90;;;;;;4976959;28;20209;-69
2021/12/20 17:57:51;;;;;;;10.90;7.72;;;1.20;99.90;;;;;;4977578;28;20307;-68
2021/12/20 18:00:20;;;;;;;14.98;8.98;;;1.10;99.90;;;;;;4975514;28;20205;-68
2021/12/20 18:02:50;;;;;;;10.52;7.72;;;1.10;99.90;;;;;;4974770;28;20474;-68
2021/12/20 18:05:18;;;;;;;10.05;8.10;;;1.10;99.90;;;;;;4976461;28;20204;-67
2021/12/20 18:07:44;;;;;;;17.35;10.63;;;1.10;99.90;;;;;;4975758;28;20668;-67